Time;durP1;ratioP1;P1;durP2;ratioP2;P2;SDS_P1;SDS_P2;PMS_P1;PMS_P2;Temp;Humidity;BMP_temperature;BMP_pressure;BME280_temperature;BME280_humidity;BME280_pressure;Samples;Min_cycle;Max_cycle;Signal;HPM_P1;HPM_P2
2024/03/27 00:01:28;;;;;;;4.15;3.08;;;;;;;4.36;100.00;97461.03;5058362;28;20056;-70
2024/03/27 00:03:54;;;;;;;5.25;2.70;;;;;;;4.38;100.00;97459.56;5042468;28;20047;-70
2024/03/27 00:06:19;;;;;;;6.40;2.80;;;;;;;4.34;100.00;97458.59;5025321;28;20045;-70
2024/03/27 00:08:45;;;;;;;4.15;2.88;;;;;;;4.30;100.00;97457.66;5041803;28;20511;-69
2024/03/27 00:11:11;;;;;;;4.82;2.60;;;;;;;4.25;100.00;97455.88;5031209;28;20041;-70
2024/03/27 00:13:36;;;;;;;3.38;2.63;;;;;;;4.24;100.00;97454.28;5034917;28;20483;-70
2024/03/27 00:16:02;;;;;;;4.68;3.03;;;;;;;4.19;100.00;97461.88;5021590;28;20047;-70
2024/03/27 00:18:27;;;;;;;3.88;2.70;;;;;;;4.20;100.00;97458.78;5080567;28;20492;-70
2024/03/27 00:20:52;;;;;;;3.72;2.50;;;;;;;4.17;100.00;97448.47;5025075;28;20036;-70
2024/03/27 00:23:18;;;;;;;4.85;2.85;;;;;;;4.21;100.00;97452.19;5041513;28;20040;-70
2024/03/27 00:25:44;;;;;;;3.80;2.55;;;;;;;4.16;100.00;97446.88;5024658;28;20033;-70
2024/03/27 00:28:09;;;;;;;4.53;2.50;;;;;;;4.12;100.00;97450.56;5025080;28;20041;-70
2024/03/27 00:30:35;;;;;;;4.20;2.60;;;;;;;4.10;100.00;97456.41;5066851;28;20033;-70
2024/03/27 00:33:01;;;;;;;3.67;2.35;;;;;;;4.08;100.00;97457.88;5025065;28;20110;-70
2024/03/27 00:35:27;;;;;;;4.38;2.67;;;;;;;4.08;100.00;97458.66;5039466;28;20112;-70
2024/03/27 00:37:52;;;;;;;3.65;2.50;;;;;;;4.07;100.00;97458.97;5035234;28;20040;-70
2024/03/27 00:40:18;;;;;;;4.63;2.63;;;;;;;4.00;100.00;97452.06;5040516;28;20093;-70
2024/03/27 00:42:44;;;;;;;3.38;2.80;;;;;;;3.97;100.00;97454.66;5025041;28;20041;-70
2024/03/27 00:45:10;;;;;;;5.53;2.92;;;;;;;3.98;100.00;97451.59;5044633;28;20060;-70
2024/03/27 00:47:35;;;;;;;4.82;2.85;;;;;;;3.97;100.00;97452.72;5034822;28;20029;-69
2024/03/27 00:50:01;;;;;;;5.68;3.70;;;;;;;4.02;100.00;97446.25;5041268;28;20040;-70
2024/03/27 00:52:26;;;;;;;5.72;3.35;;;;;;;3.97;100.00;97451.91;5025258;28;20037;-70
2024/03/27 00:54:52;;;;;;;5.63;3.40;;;;;;;3.97;100.00;97446.41;5040844;28;20040;-70
2024/03/27 00:57:18;;;;;;;6.82;3.50;;;;;;;3.92;100.00;97450.13;5041222;28;20036;-70
2024/03/27 00:59:44;;;;;;;5.60;3.42;;;;;;;3.91;100.00;97448.53;5053103;28;20040;-70
2024/03/27 01:02:09;;;;;;;5.65;3.85;;;;;;;3.93;100.00;97450.97;5024688;28;20056;-70
2024/03/27 01:04:35;;;;;;;7.40;4.10;;;;;;;3.89;100.00;97447.22;5036017;28;20036;-70
2024/03/27 01:07:00;;;;;;;6.10;3.78;;;;;;;3.87;100.00;97435.75;5024327;28;20043;-69
2024/03/27 01:09:26;;;;;;;6.72;3.83;;;;;;;3.90;100.00;97432.34;5052809;28;20032;-69
2024/03/27 01:11:51;;;;;;;8.00;4.30;;;;;;;3.84;100.00;97422.69;5041078;28;20504;-69
2024/03/27 01:14:16;;;;;;;6.97;4.35;;;;;;;3.81;100.00;97421.41;5057508;28;20058;-70
2024/03/27 01:16:42;;;;;;;7.68;3.95;;;;;;;3.89;100.00;97414.28;5044376;28;20044;-70
2024/03/27 01:19:07;;;;;;;7.25;4.10;;;;;;;3.87;100.00;97416.53;5057356;28;20029;-70
2024/03/27 01:21:33;;;;;;;6.80;4.00;;;;;;;3.84;100.00;97419.94;5040823;28;20096;-70
2024/03/27 01:23:58;;;;;;;5.85;3.72;;;;;;;3.80;100.00;97420.59;5040648;28;20036;-70
2024/03/27 01:26:24;;;;;;;5.45;3.60;;;;;;;3.76;100.00;97405.09;5041125;28;20041;-70
2024/03/27 01:28:49;;;;;;;6.28;3.90;;;;;;;3.73;100.00;97401.09;5040567;28;20090;-70
2024/03/27 01:31:15;;;;;;;5.00;3.40;;;;;;;3.76;100.00;97407.84;5041031;28;20508;-70
2024/03/27 01:33:40;;;;;;;7.55;4.03;;;;;;;3.74;100.00;97401.88;5040872;28;20040;-70
2024/03/27 01:36:06;;;;;;;8.10;3.72;;;;;;;3.73;100.00;97405.75;5039619;28;20523;-70
2024/03/27 01:38:32;;;;;;;7.70;3.78;;;;;;;3.69;100.00;97394.63;5037711;28;20047;-70
2024/03/27 01:40:58;;;;;;;7.10;3.90;;;;;;;3.68;100.00;97400.44;5024294;28;20040;-70
2024/03/27 01:43:23;;;;;;;5.00;3.47;;;;;;;3.64;100.00;97411.25;5064652;28;20036;-70
2024/03/27 01:45:49;;;;;;;6.80;3.53;;;;;;;3.59;100.00;97403.16;5019569;28;20036;-70
2024/03/27 01:48:14;;;;;;;4.55;3.28;;;;;;;3.60;100.00;97390.28;5040689;28;20049;-70
2024/03/27 01:50:40;;;;;;;4.97;3.53;;;;;;;3.58;100.00;97398.81;5038374;28;20079;-70
2024/03/27 01:53:05;;;;;;;5.38;3.50;;;;;;;3.57;100.00;97392.53;5059364;28;20036;-69
2024/03/27 01:55:31;;;;;;;5.05;3.50;;;;;;;3.60;100.00;97401.25;5044093;28;20043;-69
2024/03/27 01:57:56;;;;;;;4.63;3.10;;;;;;;3.55;100.00;97396.72;5041207;28;20366;-70
2024/03/27 02:00:22;;;;;;;5.03;3.45;;;;;;;3.53;100.00;97393.50;5039275;28;20032;-70
2024/03/27 02:02:47;;;;;;;5.80;3.35;;;;;;;3.52;100.00;97391.88;5019165;28;20506;-70
2024/03/27 02:05:13;;;;;;;6.20;3.33;;;;;;;3.48;100.00;97389.00;5027544;28;20044;-69
2024/03/27 02:07:39;;;;;;;5.38;3.15;;;;;;;3.50;100.00;97391.41;5040976;28;20060;-69
2024/03/27 02:10:05;;;;;;;5.80;3.35;;;;;;;3.46;100.00;97390.44;5038899;28;20508;-70
2024/03/27 02:12:30;;;;;;;5.85;3.10;;;;;;;3.45;100.00;97394.31;5045881;28;20552;-69
2024/03/27 02:14:56;;;;;;;5.50;3.00;;;;;;;3.38;100.00;97389.31;5060710;28;20132;-70
2024/03/27 02:17:21;;;;;;;5.63;3.20;;;;;;;3.38;100.00;97394.81;5064033;28;20036;-70
2024/03/27 02:19:47;;;;;;;5.55;3.05;;;;;;;3.40;100.00;97391.72;5027655;28;20036;-70
2024/03/27 02:22:12;;;;;;;4.15;3.00;;;;;;;3.41;100.00;97388.66;5060314;28;20066;-70
2024/03/27 02:24:52;;;;;;;3.97;2.85;;;;;;;3.39;100.00;97384.63;5043614;28;20032;-69
2024/03/27 02:27:17;;;;;;;5.10;3.20;;;;;;;3.39;100.00;97373.66;5056760;28;20135;-69
2024/03/27 02:29:43;;;;;;;5.05;3.42;;;;;;;3.38;100.00;97374.78;5038576;28;20052;-70
2024/03/27 02:32:08;;;;;;;4.85;2.78;;;;;;;3.41;100.00;97365.91;5023667;28;20060;-70
2024/03/27 02:34:33;;;;;;;5.55;3.05;;;;;;;3.41;100.00;97376.88;5043515;28;20644;-70
2024/03/27 02:36:59;;;;;;;4.28;2.80;;;;;;;3.42;100.00;97362.84;5026837;28;20047;-69
2024/03/27 02:39:24;;;;;;;6.97;3.08;;;;;;;3.41;100.00;97365.91;5025411;28;20362;-70
2024/03/27 02:41:50;;;;;;;5.70;3.00;;;;;;;3.45;100.00;97361.38;5026813;28;20036;-70
2024/03/27 02:44:15;;;;;;;6.57;3.00;;;;;;;3.50;100.00;97358.47;5060211;28;20111;-70
2024/03/27 02:46:41;;;;;;;3.90;2.50;;;;;;;3.50;100.00;97355.72;5043028;28;20037;-69
2024/03/27 02:49:07;;;;;;;3.83;2.40;;;;;;;3.53;100.00;97352.34;5045824;28;20480;-70
2024/03/27 02:51:32;;;;;;;5.38;2.85;;;;;;;3.53;100.00;97353.13;5042952;28;20033;-70
2024/03/27 02:53:58;;;;;;;3.13;2.58;;;;;;;3.57;100.00;97343.13;5059522;28;20040;-70
2024/03/27 02:56:23;;;;;;;5.47;2.53;;;;;;;3.64;100.00;97355.56;5057063;28;20028;-70
2024/03/27 02:58:49;;;;;;;3.95;2.28;;;;;;;3.60;100.00;97347.16;5043163;28;20047;-70
2024/03/27 03:01:14;;;;;;;3.88;2.50;;;;;;;3.65;100.00;97351.66;5039706;28;20037;-70
2024/03/27 03:03:40;;;;;;;2.83;2.33;;;;;;;3.62;100.00;97353.13;5025099;28;20515;-70
2024/03/27 03:06:05;;;;;;;3.63;2.30;;;;;;;3.62;100.00;97349.56;5026647;28;20036;-69
2024/03/27 03:08:31;;;;;;;3.83;2.20;;;;;;;3.65;100.00;97336.03;5042986;28;20044;-70
2024/03/27 03:10:56;;;;;;;4.38;2.55;;;;;;;3.58;100.00;97344.75;5031657;28;20483;-70
2024/03/27 03:13:22;;;;;;;4.07;2.15;;;;;;;3.60;100.00;97344.44;5059800;28;20036;-70
2024/03/27 03:15:48;;;;;;;4.93;2.72;;;;;;;3.59;100.00;97345.53;5015278;28;20037;-70
2024/03/27 03:18:15;;;;;;;4.07;2.20;;;;;;;3.55;100.00;97331.69;5059526;28;20489;-70
2024/03/27 03:20:40;;;;;;;4.88;2.45;;;;;;;3.49;100.00;97338.47;5040224;28;20043;-70
2024/03/27 03:23:06;;;;;;;4.53;2.33;;;;;;;3.48;100.00;97334.13;5042557;28;20033;-70
2024/03/27 03:25:31;;;;;;;3.83;2.08;;;;;;;3.45;100.00;97334.75;5026041;28;20036;-70
2024/03/27 03:27:57;;;;;;;3.08;2.10;;;;;;;3.43;100.00;97336.22;5047465;28;20044;-70
2024/03/27 03:30:22;;;;;;;3.83;2.50;;;;;;;3.41;100.00;97327.50;5036974;28;20040;-70
2024/03/27 03:32:48;;;;;;;4.65;1.90;;;;;;;3.38;100.00;97334.44;5025645;28;20052;-69
2024/03/27 03:35:14;;;;;;;4.15;2.20;;;;;;;3.38;100.00;97330.91;5023573;28;20550;-70
2024/03/27 03:37:40;;;;;;;5.38;2.15;;;;;;;3.36;100.00;97331.22;5042412;28;20071;-70
2024/03/27 03:40:09;;;;;;;4.45;2.35;;;;;;;3.33;100.00;97326.38;5058490;28;20039;-70
2024/03/27 03:42:34;;;;;;;2.75;2.10;;;;;;;3.36;100.00;97328.47;5026587;28;20068;-69
2024/03/27 03:44:59;;;;;;;2.97;2.10;;;;;;;3.27;100.00;97317.50;5042126;28;20108;-70
2024/03/27 03:47:25;;;;;;;4.40;2.25;;;;;;;3.24;100.00;97311.88;5042511;28;20049;-69
2024/03/27 03:49:50;;;;;;;3.08;1.80;;;;;;;3.23;100.00;97300.09;5025488;28;20100;-69
2024/03/27 03:52:16;;;;;;;2.80;2.05;;;;;;;3.21;100.00;97301.56;5025689;28;20400;-70
2024/03/27 03:54:41;;;;;;;3.22;1.65;;;;;;;3.17;100.00;97295.91;5025158;28;20048;-70
2024/03/27 03:57:07;;;;;;;3.30;1.70;;;;;;;3.14;100.00;97296.53;5025650;28;20043;-69
2024/03/27 03:59:33;;;;;;;2.92;1.98;;;;;;;3.14;100.00;97280.91;5039086;28;20044;-69
2024/03/27 04:01:58;;;;;;;3.53;2.08;;;;;;;3.09;100.00;97283.81;5041799;28;20044;-70
2024/03/27 04:04:23;;;;;;;4.88;2.30;;;;;;;3.06;100.00;97278.16;5055387;28;20098;-70
2024/03/27 04:06:49;;;;;;;3.55;2.13;;;;;;;3.06;100.00;97278.97;5025137;28;20439;-70
2024/03/27 04:09:14;;;;;;;3.80;2.20;;;;;;;3.04;100.00;97281.25;5058203;28;20052;-69
2024/03/27 04:11:40;;;;;;;5.35;2.58;;;;;;;3.02;100.00;97271.72;5058331;28;20467;-69
2024/03/27 04:14:05;;;;;;;4.55;2.45;;;;;;;3.04;100.00;97266.72;5038988;28;20424;-70
2024/03/27 04:16:31;;;;;;;4.70;2.63;;;;;;;2.99;100.00;97273.19;5043639;28;20043;-69
2024/03/27 04:18:58;;;;;;;4.57;2.92;;;;;;;2.95;100.00;97268.66;5027016;28;20401;-69
2024/03/27 04:21:23;;;;;;;5.50;3.42;;;;;;;2.99;100.00;97262.22;5041817;28;20039;-69
2024/03/27 04:23:49;;;;;;;4.72;2.80;;;;;;;2.97;100.00;97263.66;5023969;28;20508;-69
2024/03/27 04:26:16;;;;;;;5.88;2.75;;;;;;;2.96;100.00;97251.09;5045407;28;20032;-70
2024/03/27 04:28:41;;;;;;;5.13;3.10;;;;;;;2.88;100.00;97253.50;5038559;28;20039;-70
2024/03/27 04:31:08;;;;;;;3.45;2.55;;;;;;;2.90;100.00;97247.72;5042780;28;20041;-70
2024/03/27 04:33:34;;;;;;;4.53;2.70;;;;;;;2.87;100.00;97249.16;5043787;28;20378;-70
2024/03/27 04:36:02;;;;;;;5.38;3.10;;;;;;;2.88;100.00;97236.25;5041653;28;20052;-70
2024/03/27 04:38:29;;;;;;;5.78;3.60;;;;;;;2.85;100.00;97232.22;5009069;28;20048;-69
2024/03/27 04:40:55;;;;;;;5.60;3.55;;;;;;;2.87;100.00;97238.19;5037112;28;20491;-69
2024/03/27 04:43:21;;;;;;;5.18;3.80;;;;;;;2.85;100.00;97234.97;5051942;28;20516;-70
2024/03/27 04:45:46;;;;;;;4.70;3.35;;;;;;;2.87;100.00;97232.72;5014095;28;20056;-70
2024/03/27 04:48:12;;;;;;;4.82;3.60;;;;;;;2.84;100.00;97235.28;5028671;28;20033;-70
2024/03/27 04:50:37;;;;;;;6.40;4.15;;;;;;;2.83;100.00;97236.41;5063700;28;20103;-69
2024/03/27 04:53:03;;;;;;;5.80;3.20;;;;;;;2.82;100.00;97224.66;5033570;28;20033;-70
2024/03/27 04:55:28;;;;;;;3.78;2.60;;;;;;;2.83;100.00;97219.97;5033189;28;20033;-70
2024/03/27 04:57:54;;;;;;;4.00;2.95;;;;;;;2.80;100.00;97224.16;5042905;28;20519;-69
2024/03/27 05:00:19;;;;;;;4.95;2.78;;;;;;;2.83;100.00;97204.34;5063717;28;20041;-70
2024/03/27 05:02:45;;;;;;;5.47;3.13;;;;;;;2.79;100.00;97208.88;5031860;28;20053;-70
2024/03/27 05:05:10;;;;;;;5.70;3.03;;;;;;;2.78;100.00;97192.72;5063524;28;20080;-70
2024/03/27 05:07:36;;;;;;;3.50;2.38;;;;;;;2.76;100.00;97187.59;5019171;28;20037;-69
2024/03/27 05:10:02;;;;;;;4.03;2.60;;;;;;;2.77;100.00;97189.19;5050642;28;20440;-69
2024/03/27 05:12:28;;;;;;;4.70;3.08;;;;;;;2.74;100.00;97184.34;5033900;28;20029;-70
2024/03/27 05:14:53;;;;;;;3.88;2.78;;;;;;;2.77;100.00;97188.38;5033753;28;20032;-70
2024/03/27 05:17:19;;;;;;;5.07;2.83;;;;;;;2.76;100.00;97187.59;5044193;28;20052;-69
2024/03/27 05:19:47;;;;;;;3.63;2.55;;;;;;;2.79;100.00;97181.47;5039654;28;20059;-70
2024/03/27 05:22:15;;;;;;;3.60;2.80;;;;;;;2.79;100.00;97189.69;5032568;28;20595;-70
2024/03/27 05:24:44;;;;;;;7.00;3.30;;;;;;;2.74;100.00;97178.06;5034679;28;20036;-69
2024/03/27 05:27:09;;;;;;;4.13;2.97;;;;;;;2.77;100.00;97189.19;5029244;28;20098;-70
2024/03/27 05:29:35;;;;;;;4.93;3.17;;;;;;;2.77;100.00;97183.72;5028742;28;20033;-70
2024/03/27 05:32:00;;;;;;;4.95;2.85;;;;;;;2.75;100.00;97210.63;5026902;28;20052;-70
2024/03/27 05:34:26;;;;;;;6.43;2.70;;;;;;;2.76;100.00;97206.78;5066756;28;20036;-69
2024/03/27 05:36:51;;;;;;;4.28;2.63;;;;;;;2.76;100.00;97203.19;5028469;28;20036;-69
2024/03/27 05:39:18;;;;;;;3.50;2.60;;;;;;;2.75;100.00;97202.41;5019442;28;20083;-69
2024/03/27 05:41:44;;;;;;;3.47;2.70;;;;;;;2.78;100.00;97200.94;5044798;28;20689;-69
2024/03/27 05:44:12;;;;;;;6.80;2.90;;;;;;;2.77;100.00;97189.19;5029575;28;20040;-69
2024/03/27 05:46:39;;;;;;;5.25;3.13;;;;;;;2.77;100.00;97183.72;5023837;28;20400;-69
2024/03/27 05:49:05;;;;;;;4.03;2.88;;;;;;;2.76;100.00;97181.28;5041603;28;20044;-69
2024/03/27 05:51:32;;;;;;;4.53;2.78;;;;;;;2.76;100.00;97181.28;5039354;28;20479;-69
2024/03/27 05:53:57;;;;;;;6.35;2.75;;;;;;;2.77;100.00;97189.19;5053216;28;20036;-69
2024/03/27 05:56:23;;;;;;;6.82;2.78;;;;;;;2.76;100.00;97189.50;5028302;28;20130;-70
2024/03/27 05:58:49;;;;;;;4.47;2.35;;;;;;;2.76;100.00;97187.59;5051647;28;20040;-69
2024/03/27 06:01:14;;;;;;;5.70;2.92;;;;;;;2.77;100.00;97188.38;5073218;28;20051;-70
2024/03/27 06:03:42;;;;;;;4.90;2.65;;;;;;;2.77;100.00;97189.19;5037507;28;20041;-69
2024/03/27 06:06:07;;;;;;;8.05;2.88;;;;;;;2.75;100.00;97185.97;5052137;28;20036;-69
2024/03/27 06:08:33;;;;;;;4.53;2.50;;;;;;;2.79;100.00;97191.63;5052016;28;20037;-69
2024/03/27 06:10:58;;;;;;;5.50;3.10;;;;;;;2.79;100.00;97192.41;5019938;28;20388;-69
2024/03/27 06:13:24;;;;;;;3.80;2.72;;;;;;;2.80;100.00;97190.47;5033382;28;20044;-69
2024/03/27 06:15:50;;;;;;;6.40;3.00;;;;;;;2.86;100.00;97175.47;5040448;28;20444;-69
2024/03/27 06:18:15;;;;;;;5.20;2.75;;;;;;;2.89;100.00;97175.63;5041250;28;20033;-70
2024/03/27 06:20:41;;;;;;;4.68;2.70;;;;;;;2.93;100.00;97166.78;5021418;28;20116;-69
2024/03/27 06:23:07;;;;;;;4.95;3.30;;;;;;;3.01;100.00;97165.91;5050188;28;20068;-69
2024/03/27 06:25:32;;;;;;;4.40;2.80;;;;;;;3.04;100.00;97160.63;5012979;28;20043;-69
2024/03/27 06:27:58;;;;;;;6.03;3.25;;;;;;;3.10;100.00;97161.25;5038377;28;20066;-70
2024/03/27 06:30:24;;;;;;;4.93;2.95;;;;;;;3.18;100.00;97157.66;5021232;28;20056;-70
2024/03/27 06:32:49;;;;;;;5.68;3.28;;;;;;;3.27;100.00;97158.44;5061982;28;20040;-70
2024/03/27 06:35:16;;;;;;;4.55;2.70;;;;;;;3.36;100.00;97161.16;5040487;28;20507;-70
2024/03/27 06:37:41;;;;;;;5.32;2.95;;;;;;;3.46;100.00;97154.50;5049789;28;20032;-70
2024/03/27 06:40:09;;;;;;;4.03;2.60;;;;;;;3.54;100.00;97167.38;5016427;28;20040;-70
2024/03/27 06:42:35;;;;;;;5.45;2.63;;;;;;;3.64;100.00;97158.75;5010719;28;20029;-70
2024/03/27 06:45:05;;;;;;;4.93;2.50;;;;;;;3.76;100.00;97161.63;5030547;28;20158;-69
2024/03/27 06:47:32;;;;;;;5.25;2.53;;;;;;;3.86;100.00;97159.63;5021245;28;20028;-69
2024/03/27 06:49:58;;;;;;;6.40;2.45;;;;;;;3.98;100.00;97157.78;5053950;28;20110;-69
2024/03/27 06:52:23;;;;;;;4.15;2.05;;;;;;;4.08;100.00;97153.84;5051082;28;20044;-70
2024/03/27 06:54:50;;;;;;;4.28;2.05;;;;;;;4.20;100.00;97155.84;5051384;28;20044;-70
2024/03/27 06:57:16;;;;;;;7.28;2.30;;;;;;;4.30;100.00;97138.19;5035743;28;20397;-70
2024/03/27 06:59:41;;;;;;;6.22;2.08;;;;;;;4.43;100.00;97142.56;5037217;28;20046;-70
2024/03/27 07:02:07;;;;;;;5.65;2.00;;;;;;;4.52;100.00;97148.81;5035335;28;20156;-70
2024/03/27 07:04:32;;;;;;;7.30;2.35;;;;;;;4.65;100.00;97142.25;5038779;28;20044;-70
2024/03/27 07:06:58;;;;;;;7.18;2.08;;;;;;;4.77;100.00;97141.50;5021075;28;20040;-70
2024/03/27 07:09:25;;;;;;;3.10;2.08;;;;;;;4.88;100.00;97131.66;5044743;28;20092;-70
2024/03/27 07:11:51;;;;;;;5.25;1.83;;;;;;;5.01;100.00;97149.00;5043212;28;20040;-70
2024/03/27 07:14:16;;;;;;;3.72;2.65;;;;;;;5.10;100.00;97140.69;5022700;28;20045;-70
2024/03/27 07:16:43;;;;;;;4.38;2.20;;;;;;;5.14;100.00;97128.63;5039381;28;20407;-69
2024/03/27 07:19:09;;;;;;;5.97;2.30;;;;;;;5.24;100.00;97129.34;5032002;28;20044;-69
2024/03/27 07:21:35;;;;;;;9.15;2.28;;;;;;;5.36;100.00;97118.34;5036929;28;20037;-68
2024/03/27 07:24:00;;;;;;;4.75;1.60;;;;;;;5.49;100.00;97133.75;5020928;28;20476;-69
2024/03/27 07:26:25;;;;;;;3.78;1.77;;;;;;;5.58;100.00;97134.44;5049913;28;20488;-69
2024/03/27 07:28:51;;;;;;;3.05;1.80;;;;;;;5.73;100.00;97123.88;5038410;28;20106;-71
2024/03/27 07:31:16;;;;;;;3.28;1.70;;;;;;;5.85;100.00;97129.38;5017633;28;20487;-69
2024/03/27 07:33:42;;;;;;;4.68;1.30;;;;;;;5.95;100.00;97120.66;5052470;28;20484;-69
2024/03/27 07:36:07;;;;;;;3.42;1.25;;;;;;;6.08;100.00;97109.66;5022700;28;20154;-69
2024/03/27 07:38:33;;;;;;;4.90;1.30;;;;;;;6.19;100.00;97111.56;5020019;28;20942;-69
2024/03/27 07:40:58;;;;;;;5.15;1.33;;;;;;;6.33;100.00;97116.69;5024390;28;20041;-69
2024/03/27 07:43:24;;;;;;;6.65;1.60;;;;;;;6.45;100.00;97124.91;5037672;28;20424;-69
2024/03/27 07:45:49;;;;;;;5.75;1.30;;;;;;;6.55;100.00;97115.38;5021012;28;20040;-69
2024/03/27 07:48:14;;;;;;;3.53;1.00;;;;;;;6.73;100.00;97118.63;5021920;28;20040;-69
2024/03/27 07:50:40;;;;;;;4.10;1.02;;;;;;;6.91;100.00;97108.88;5039175;28;20032;-69
2024/03/27 07:53:06;;;;;;;3.00;1.10;;;;;;;7.06;100.00;97109.28;5028581;28;20043;-69
2024/03/27 07:55:31;;;;;;;4.82;0.90;;;;;;;7.18;100.00;97106.44;5037958;28;20052;-69
2024/03/27 07:57:57;;;;;;;2.13;1.00;;;;;;;7.28;100.00;97096.84;5038440;28;20048;-69
2024/03/27 08:00:22;;;;;;;4.22;1.10;;;;;;;7.39;100.00;97106.19;5039403;28;20512;-69
2024/03/27 08:02:48;;;;;;;4.88;1.02;;;;;;;7.46;100.00;97106.34;5046935;28;20052;-69
2024/03/27 08:05:13;;;;;;;4.60;1.23;;;;;;;7.56;100.00;97105.81;5049118;28;20032;-69
2024/03/27 08:07:39;;;;;;;1.88;0.80;;;;;;;7.67;100.00;97097.78;5035135;28;20040;-69
2024/03/27 08:10:05;;;;;;;7.30;1.35;;;;;;;7.78;100.00;97098.06;5053322;28;20033;-69
2024/03/27 08:12:31;;;;;;;5.18;1.02;;;;;;;7.86;100.00;97107.31;5021515;28;20063;-69
2024/03/27 08:14:57;;;;;;;4.97;1.20;;;;;;;7.93;100.00;97105.50;5044966;28;20444;-69
2024/03/27 08:17:22;;;;;;;4.60;1.20;;;;;;;8.00;100.00;97102.13;5037286;28;20053;-69
2024/03/27 08:19:48;;;;;;;2.97;1.17;;;;;;;8.06;100.00;97097.91;5037964;28;20036;-69
2024/03/27 08:22:13;;;;;;;4.68;1.65;;;;;;;8.14;100.00;97096.09;5036449;28;20044;-69
2024/03/27 08:24:38;;;;;;;5.75;1.30;;;;;;;8.23;100.00;97089.19;5041342;28;20412;-69
2024/03/27 08:27:05;;;;;;;6.43;1.48;;;;;;;8.29;100.00;97107.09;5029796;28;20061;-69
2024/03/27 08:29:31;;;;;;;6.18;1.50;;;;;;;8.31;100.00;97101.22;5036207;28;20066;-69
2024/03/27 08:31:59;;;;;;;4.03;1.33;;;;;;;8.37;100.00;97099.75;5023983;28;20100;-69
2024/03/27 08:34:25;;;;;;;2.63;1.13;;;;;;;8.42;100.00;97090.41;5036246;28;20044;-69
2024/03/27 08:36:51;;;;;;;4.50;1.10;;;;;;;8.48;100.00;97095.28;5052830;28;20037;-69
2024/03/27 08:39:16;;;;;;;2.53;1.17;;;;;;;8.53;100.00;97094.22;5053057;28;20039;-69
2024/03/27 08:41:43;;;;;;;4.85;1.40;;;;;;;8.56;100.00;97093.47;5038044;28;20041;-70
2024/03/27 08:44:09;;;;;;;3.35;1.50;;;;;;;8.63;100.00;97085.31;5025332;28;20088;-69
2024/03/27 08:46:34;;;;;;;4.60;1.40;;;;;;;8.67;100.00;97102.00;5028837;28;20032;-69
2024/03/27 08:49:00;;;;;;;4.63;1.58;;;;;;;8.69;100.00;97089.41;5058076;28;20036;-69
2024/03/27 08:51:26;;;;;;;5.50;1.88;;;;;;;8.77;100.00;97084.00;5038269;28;20120;-69
2024/03/27 08:53:51;;;;;;;5.70;1.65;;;;;;;8.87;100.00;97100.03;5024687;28;20037;-69
2024/03/27 08:56:17;;;;;;;6.82;1.52;;;;;;;8.91;100.00;97100.88;5041062;28;20036;-69
2024/03/27 08:58:42;;;;;;;4.85;1.20;;;;;;;8.95;100.00;97080.41;5023340;28;20077;-69
2024/03/27 09:01:18;;;;;;;2.70;1.25;;;;;;;9.00;100.00;97075.72;5038379;28;20117;-69
2024/03/27 09:03:43;;;;;;;3.50;1.55;;;;;;;9.01;100.00;97089.22;5016571;28;20052;-69
2024/03/27 09:06:09;;;;;;;4.47;1.40;;;;;;;9.11;100.00;97093.34;5053924;28;20029;-69
2024/03/27 09:08:35;;;;;;;8.75;1.65;;;;;;;9.14;100.00;97081.53;5017681;28;20041;-69
2024/03/27 09:11:00;;;;;;;9.07;1.90;;;;;;;9.14;100.00;97076.81;5055096;28;20049;-69
2024/03/27 09:13:26;;;;;;;5.95;1.52;;;;;;;9.12;100.00;97079.13;5037260;28;20037;-69
2024/03/27 09:15:54;;;;;;;4.65;1.50;;;;;;;9.10;100.00;97070.38;5019390;28;20037;-69
2024/03/27 09:18:19;;;;;;;5.60;1.33;;;;;;;9.03;100.00;97081.34;5007120;28;20045;-70
2024/03/27 09:20:57;;;;;;;6.00;1.60;;;;;;;8.99;100.00;97086.00;5021006;28;20048;-70
2024/03/27 09:23:24;;;;;;;6.57;1.48;;;;;;;8.94;100.00;97073.28;5021947;28;20047;-70
2024/03/27 09:25:56;;;;;;;7.47;1.67;;;;;;;8.92;100.00;97080.34;5049191;28;20101;-70
2024/03/27 09:28:22;;;;;;;5.18;1.50;;;;;;;8.86;100.00;97081.78;5052319;28;20036;-70
2024/03/27 09:30:47;;;;;;;11.23;2.20;;;;;;;8.80;100.00;97077.72;5033391;28;20119;-70
2024/03/27 09:33:13;;;;;;;13.80;2.10;;;;;;;8.75;100.00;97086.31;5049751;28;20091;-70
2024/03/27 09:35:39;;;;;;;3.13;1.55;;;;;;;8.69;100.00;97083.88;5023137;28;20039;-70
2024/03/27 09:38:04;;;;;;;7.90;2.00;;;;;;;8.65;100.00;97071.91;5039219;28;20070;-69
2024/03/27 09:40:30;;;;;;;4.18;1.50;;;;;;;8.63;100.00;97079.78;5038584;28;20041;-70
2024/03/27 09:42:55;;;;;;;4.25;1.50;;;;;;;8.62;100.00;97080.94;5042098;28;20040;-70
2024/03/27 09:45:22;;;;;;;5.70;1.40;;;;;;;8.59;100.00;97089.97;5033019;28;20033;-69
2024/03/27 09:47:47;;;;;;;5.25;1.58;;;;;;;8.57;100.00;97086.78;5043325;28;20040;-70
2024/03/27 09:50:13;;;;;;;5.15;1.73;;;;;;;8.56;100.00;97101.78;5028122;28;20649;-70
2024/03/27 09:52:39;;;;;;;8.15;1.60;;;;;;;8.58;100.00;97088.41;5043179;28;20037;-70
2024/03/27 09:55:05;;;;;;;7.80;1.58;;;;;;;8.57;100.00;97097.03;5024192;28;20037;-70
2024/03/27 09:57:30;;;;;;;8.40;1.17;;;;;;;8.57;100.00;97091.50;5040477;28;20048;-70
2024/03/27 09:59:58;;;;;;;6.88;1.38;;;;;;;8.56;100.00;97107.31;5041232;28;20036;-70
2024/03/27 10:02:26;;;;;;;7.53;1.23;;;;;;;8.57;100.00;97108.09;5031630;28;20049;-70
2024/03/27 10:04:52;;;;;;;7.60;1.30;;;;;;;8.54;100.00;97109.63;5016276;28;20037;-69
2024/03/27 10:07:20;;;;;;;3.38;1.30;;;;;;;8.57;100.00;97130.22;5017918;28;20047;-69
2024/03/27 10:09:45;;;;;;;4.72;1.13;;;;;;;8.55;100.00;97127.03;4990441;28;20044;-70
2024/03/27 10:12:12;;;;;;;8.55;1.75;;;;;;;8.54;100.00;97128.19;5057065;28;20034;-70
2024/03/27 10:14:37;;;;;;;6.10;1.40;;;;;;;8.56;100.00;97131.41;5034003;28;20041;-73
2024/03/27 10:17:03;;;;;;;5.43;1.17;;;;;;;8.50;100.00;97136.41;5059584;28;20095;-71
2024/03/27 10:19:30;;;;;;;4.13;1.30;;;;;;;8.52;100.00;97139.59;5031998;28;20095;-71
2024/03/27 10:21:55;;;;;;;7.43;1.60;;;;;;;8.52;100.00;97134.06;5035651;28;20116;-71
2024/03/27 10:24:21;;;;;;;3.42;1.10;;;;;;;8.52;100.00;97138.81;5037909;28;20037;-71
2024/03/27 10:26:48;;;;;;;6.90;1.38;;;;;;;8.50;100.00;97158.56;5005690;28;20511;-69
2024/03/27 10:29:13;;;;;;;5.28;1.30;;;;;;;8.50;100.00;97166.84;5049469;28;20037;-70
2024/03/27 10:31:39;;;;;;;7.53;1.25;;;;;;;8.53;100.00;97168.88;5046316;28;20437;-70
2024/03/27 10:34:04;;;;;;;6.38;1.25;;;;;;;8.55;100.00;97165.75;5036926;28;20654;-70
2024/03/27 10:36:31;;;;;;;5.00;0.90;;;;;;;8.58;100.00;97165.00;5030276;28;20087;-69
2024/03/27 10:38:58;;;;;;;4.63;0.98;;;;;;;8.62;100.00;97163.13;5021041;28;20072;-69
2024/03/27 10:41:26;;;;;;;3.42;1.10;;;;;;;8.70;100.00;97162.94;5019144;28;20072;-70
2024/03/27 10:43:56;;;;;;;4.63;0.80;;;;;;;8.82;100.00;97169.47;5028909;28;20049;-69
2024/03/27 10:46:22;;;;;;;2.28;0.80;;;;;;;8.92;100.00;97168.91;5045476;28;20041;-70
2024/03/27 10:48:48;;;;;;;3.05;0.82;;;;;;;9.04;100.00;97165.97;5043340;28;20370;-69
2024/03/27 10:51:14;;;;;;;2.78;0.90;;;;;;;9.15;100.00;97164.22;5044118;28;20182;-69
2024/03/27 10:53:39;;;;;;;4.50;1.00;;;;;;;9.31;100.00;97163.34;5048800;28;20041;-70
2024/03/27 10:56:05;;;;;;;3.58;0.73;;;;;;;9.48;100.00;97160.09;5059463;28;20041;-70
2024/03/27 10:58:31;;;;;;;2.78;0.93;;;;;;;9.58;100.00;97162.25;5042438;28;20064;-69
2024/03/27 11:00:56;;;;;;;2.35;0.60;;;;;;;9.74;100.00;97169.63;5019326;28;20069;-70
2024/03/27 11:03:26;;;;;;;5.55;0.90;;;;;;;9.90;100.00;97175.84;5049122;28;20050;-70
2024/03/27 11:05:51;;;;;;;2.90;0.80;;;;;;;10.04;100.00;97183.59;5017422;28;20029;-69
2024/03/27 11:08:17;;;;;;;2.83;0.70;;;;;;;10.16;100.00;97190.91;5019043;28;20040;-70
2024/03/27 11:10:43;;;;;;;2.13;0.65;;;;;;;10.29;100.00;97195.13;5033376;28;20040;-69
2024/03/27 11:13:09;;;;;;;2.75;0.60;;;;;;;10.43;100.00;97208.41;5027961;28;20569;-69
2024/03/27 11:15:38;;;;;;;3.45;0.90;;;;;;;10.55;100.00;97218.47;5023301;28;20104;-69
2024/03/27 11:18:04;;;;;;;3.95;0.80;;;;;;;10.67;100.00;97212.69;5021331;28;20392;-69
2024/03/27 11:20:29;;;;;;;5.50;0.95;;;;;;;10.78;100.00;97210.91;5063011;28;20048;-69
2024/03/27 11:22:55;;;;;;;4.65;1.00;;;;;;;10.86;100.00;97220.91;5019539;28;20043;-69
2024/03/27 11:25:25;;;;;;;3.90;0.52;;;;;;;10.93;100.00;97218.22;5025994;28;20508;-69
2024/03/27 11:27:50;;;;;;;7.20;0.60;;;;;;;11.03;100.00;97207.63;5038567;28;20115;-69